Time;durP1;ratioP1;P1;durP2;ratioP2;P2;SDS_P1;SDS_P2;PMS_P1;PMS_P2;Temp;Humidity;BMP_temperature;BMP_pressure;BME280_temperature;BME280_humidity;BME280_pressure;Samples;Min_cycle;Max_cycle;Signal;HPM_P1;HPM_P2
2023/05/18 00:02:04;;;;;;;0.40;0.40;;;8.80;99.90;;;;;;5040362;28;20041;-73
2023/05/18 00:04:34;;;;;;;5.53;0.82;;;8.80;99.90;;;;;;5040921;28;20049;-73
2023/05/18 00:07:03;;;;;;;0.40;0.40;;;8.80;99.90;;;;;;5040112;28;20513;-73
2023/05/18 00:09:30;;;;;;;0.40;0.40;;;8.80;99.90;;;;;;5040999;28;20402;-73
2023/05/18 00:11:57;;;;;;;0.40;0.40;;;8.80;99.90;;;;;;5037398;28;20543;-73
2023/05/18 00:14:22;;;;;;;0.68;0.68;;;8.80;99.90;;;;;;5040390;28;20055;-73
2023/05/18 00:16:48;;;;;;;0.55;0.55;;;8.80;99.90;;;;;;5040505;28;20402;-74
2023/05/18 00:19:14;;;;;;;0.88;0.88;;;8.70;99.90;;;;;;5037765;28;20045;-74
2023/05/18 00:21:45;;;;;;;1.83;0.90;;;8.70;99.90;;;;;;5040771;28;20510;-73
2023/05/18 00:24:11;;;;;;;0.77;0.77;;;8.60;99.90;;;;;;5037146;28;20506;-73
2023/05/18 00:26:42;;;;;;;0.40;0.40;;;8.60;99.90;;;;;;5040214;28;20582;-74
2023/05/18 00:29:10;;;;;;;1.33;1.23;;;8.60;99.90;;;;;;5046283;28;20046;-73
2023/05/18 00:31:38;;;;;;;5.22;0.40;;;8.60;99.90;;;;;;5037078;28;20085;-73
2023/05/18 00:34:11;;;;;;;0.50;0.50;;;8.50;99.90;;;;;;5043606;28;20055;-73
2023/05/18 00:36:38;;;;;;;0.75;0.75;;;8.50;99.90;;;;;;5041605;28;20045;-73
2023/05/18 00:39:05;;;;;;;0.60;0.60;;;8.50;99.90;;;;;;5045542;28;20559;-73
2023/05/18 00:41:32;;;;;;;0.50;0.50;;;8.50;99.90;;;;;;5033373;28;20045;-73
2023/05/18 00:43:58;;;;;;;0.65;0.35;;;8.50;99.90;;;;;;5035635;28;20049;-73
2023/05/18 00:46:25;;;;;;;0.80;0.80;;;8.40;99.90;;;;;;5042318;28;20055;-73
2023/05/18 00:48:52;;;;;;;0.50;0.50;;;8.40;99.90;;;;;;5043896;28;20049;-73
2023/05/18 00:51:22;;;;;;;0.45;0.45;;;8.40;99.90;;;;;;5040313;28;20041;-74
2023/05/18 00:53:49;;;;;;;0.30;0.30;;;8.40;99.90;;;;;;5040975;28;20506;-73
2023/05/18 00:56:15;;;;;;;1.15;1.05;;;8.40;99.90;;;;;;5038772;28;20498;-73
2023/05/18 00:58:43;;;;;;;0.70;0.70;;;8.40;99.90;;;;;;5041988;28;20040;-73
2023/05/18 01:01:08;;;;;;;0.30;0.30;;;8.40;99.90;;;;;;5040581;28;20052;-73
2023/05/18 01:03:38;;;;;;;0.82;0.82;;;8.40;99.90;;;;;;5045865;28;20671;-73
2023/05/18 01:06:08;;;;;;;0.32;0.32;;;8.40;99.90;;;;;;5041087;28;20041;-73
2023/05/18 01:08:35;;;;;;;0.68;0.68;;;8.30;99.90;;;;;;5045630;28;20056;-74
2023/05/18 01:11:20;;;;;;;0.47;0.47;;;8.20;99.90;;;;;;5045569;28;20083;-73
2023/05/18 01:14:15;;;;;;;0.50;0.50;;;8.20;99.90;;;;;;5036681;28;20048;-73
2023/05/18 01:17:01;;;;;;;1.23;1.17;;;8.10;99.90;;;;;;5041713;28;20057;-73
2023/05/18 01:20:06;;;;;;;0.65;0.65;;;8.10;99.90;;;;;;5040020;28;20045;-73
2023/05/18 01:22:47;;;;;;;0.40;0.40;;;8.10;99.90;;;;;;5031127;28;20053;-73
2023/05/18 01:25:39;;;;;;;0.40;0.40;;;8.10;99.90;;;;;;5044689;28;20052;-73
2023/05/18 01:28:12;;;;;;;0.50;0.50;;;8.00;99.90;;;;;;5032348;28;20588;-73
2023/05/18 01:30:40;;;;;;;1.08;0.98;;;8.00;99.90;;;;;;5036797;28;20114;-74
2023/05/18 01:33:08;;;;;;;0.60;0.60;;;8.00;99.90;;;;;;5038859;28;20033;-73
2023/05/18 01:35:34;;;;;;;0.50;0.50;;;7.90;99.90;;;;;;5039624;28;20510;-73
2023/05/18 01:38:00;;;;;;;2.17;1.35;;;7.90;99.90;;;;;;5037321;28;20038;-73
2023/05/18 01:40:33;;;;;;;0.60;0.60;;;7.90;99.90;;;;;;5038258;28;20084;-74
2023/05/18 01:43:07;;;;;;;0.40;0.40;;;7.90;99.90;;;;;;5035087;28;20042;-73
2023/05/18 01:45:35;;;;;;;0.50;0.50;;;7.90;99.90;;;;;;5034887;28;20060;-74
2023/05/18 01:48:01;;;;;;;0.40;0.40;;;7.90;99.90;;;;;;5039653;28;20110;-74
2023/05/18 01:50:36;;;;;;;1.95;0.82;;;7.90;99.90;;;;;;5035895;28;20144;-73
2023/05/18 01:53:12;;;;;;;0.40;0.40;;;7.90;99.90;;;;;;5041194;28;20130;-74
2023/05/18 01:55:39;;;;;;;1.67;1.15;;;7.90;99.90;;;;;;5050660;28;20413;-73
2023/05/18 01:58:07;;;;;;;0.63;0.60;;;7.90;99.90;;;;;;5040942;28;20120;-74
2023/05/18 02:00:33;;;;;;;0.70;0.70;;;7.80;99.90;;;;;;5043456;28;20099;-74
2023/05/18 02:02:59;;;;;;;0.90;0.90;;;7.80;99.90;;;;;;5044089;28;20448;-73
2023/05/18 02:05:24;;;;;;;1.25;1.15;;;7.80;99.90;;;;;;5045917;28;20063;-73
2023/05/18 02:07:50;;;;;;;0.40;0.40;;;7.80;99.90;;;;;;5044137;28;20413;-73
2023/05/18 02:10:16;;;;;;;0.80;0.80;;;7.70;99.90;;;;;;5042227;28;20091;-73
2023/05/18 02:12:41;;;;;;;0.70;0.70;;;7.70;99.90;;;;;;5039399;28;20080;-73
2023/05/18 02:15:07;;;;;;;2.58;0.77;;;7.70;99.90;;;;;;5045988;28;20076;-73
2023/05/18 02:17:37;;;;;;;1.27;0.90;;;7.70;99.90;;;;;;5041780;28;20054;-73
2023/05/18 02:20:07;;;;;;;0.70;0.70;;;7.60;99.90;;;;;;5042362;28;20049;-73
2023/05/18 02:22:34;;;;;;;0.45;0.45;;;7.70;99.90;;;;;;5040410;28;20142;-73
2023/05/18 02:25:00;;;;;;;0.40;0.40;;;7.70;99.90;;;;;;5041301;28;20050;-73
2023/05/18 02:27:26;;;;;;;0.80;0.60;;;7.70;99.90;;;;;;5045159;28;20053;-73
2023/05/18 02:29:53;;;;;;;0.40;0.40;;;7.60;99.90;;;;;;5045595;28;20072;-73
2023/05/18 02:32:19;;;;;;;1.05;1.05;;;7.60;99.90;;;;;;5045596;28;20049;-73
2023/05/18 02:34:45;;;;;;;0.32;0.32;;;7.60;99.90;;;;;;5049342;28;20156;-73
2023/05/18 02:37:12;;;;;;;0.38;0.38;;;7.60;99.90;;;;;;5053736;28;20068;-73
2023/05/18 02:39:38;;;;;;;0.40;0.40;;;7.60;99.90;;;;;;5054775;28;20045;-73
2023/05/18 02:42:04;;;;;;;0.38;0.38;;;7.70;99.90;;;;;;5045008;28;20037;-73
2023/05/18 02:44:30;;;;;;;0.40;0.40;;;7.60;99.90;;;;;;5037380;28;20099;-73
2023/05/18 02:46:56;;;;;;;0.85;0.50;;;7.60;99.90;;;;;;5038430;28;20440;-73
2023/05/18 02:49:22;;;;;;;9.63;0.95;;;7.50;99.90;;;;;;5041394;28;20460;-73
2023/05/18 02:51:47;;;;;;;1.75;0.93;;;7.50;99.90;;;;;;5046277;28;20061;-73
2023/05/18 02:54:13;;;;;;;0.60;0.60;;;7.50;99.90;;;;;;5041586;28;20053;-73
2023/05/18 02:56:40;;;;;;;0.85;0.85;;;7.50;99.90;;;;;;5042765;28;20133;-73
2023/05/18 02:59:06;;;;;;;1.02;1.02;;;7.50;99.90;;;;;;5037910;28;20049;-73
2023/05/18 03:01:33;;;;;;;0.60;0.60;;;7.50;99.90;;;;;;5039167;28;20147;-73
2023/05/18 03:03:59;;;;;;;1.40;1.30;;;7.50;99.90;;;;;;5036343;28;20079;-74
2023/05/18 03:06:25;;;;;;;0.47;0.47;;;7.50;99.90;;;;;;5040306;28;20072;-74
2023/05/18 03:08:55;;;;;;;1.65;1.35;;;7.40;99.90;;;;;;5041948;28;20045;-73
2023/05/18 03:11:22;;;;;;;1.27;1.20;;;7.40;99.90;;;;;;5044375;28;20037;-73
2023/05/18 03:13:49;;;;;;;1.73;1.02;;;7.40;99.90;;;;;;5042382;28;20104;-74
2023/05/18 03:16:14;;;;;;;0.73;0.73;;;7.40;99.90;;;;;;5047266;28;20044;-74
2023/05/18 03:18:40;;;;;;;0.50;0.50;;;7.50;99.90;;;;;;5043975;28;20041;-74
2023/05/18 03:21:06;;;;;;;0.95;0.88;;;7.50;99.90;;;;;;5041782;28;20041;-74
2023/05/18 03:23:33;;;;;;;1.05;1.05;;;7.50;99.90;;;;;;5045040;28;20513;-74
2023/05/18 03:26:01;;;;;;;0.32;0.32;;;7.50;99.90;;;;;;5042365;28;20073;-74
2023/05/18 03:28:27;;;;;;;0.50;0.50;;;7.50;99.90;;;;;;5042132;28;20460;-74
2023/05/18 03:30:53;;;;;;;0.30;0.30;;;7.50;99.90;;;;;;5043056;28;20040;-74
2023/05/18 03:33:19;;;;;;;0.30;0.30;;;7.40;99.90;;;;;;5037118;28;20076;-73
2023/05/18 03:35:45;;;;;;;0.35;0.35;;;7.40;99.90;;;;;;5038493;28;20048;-73
2023/05/18 03:38:10;;;;;;;0.45;0.45;;;7.40;99.90;;;;;;5050458;28;20059;-74
2023/05/18 03:40:36;;;;;;;0.60;0.60;;;7.40;99.90;;;;;;5031794;28;20073;-73
2023/05/18 03:43:02;;;;;;;0.38;0.38;;;7.40;99.90;;;;;;5026433;28;20041;-74
2023/05/18 03:45:27;;;;;;;0.50;0.50;;;7.40;99.90;;;;;;5040854;28;20044;-74
2023/05/18 03:47:53;;;;;;;1.42;1.33;;;7.30;99.90;;;;;;5044892;28;20135;-74
2023/05/18 03:50:20;;;;;;;0.30;0.30;;;7.40;99.90;;;;;;5038947;28;20068;-74
2023/05/18 03:52:45;;;;;;;0.70;0.70;;;7.40;99.90;;;;;;5038177;28;20119;-73
2023/05/18 03:55:12;;;;;;;0.63;0.63;;;7.40;99.90;;;;;;5065285;28;20049;-73
2023/05/18 03:57:38;;;;;;;1.05;0.90;;;7.40;99.90;;;;;;5041142;28;20056;-74
2023/05/18 04:00:10;;;;;;;0.65;0.65;;;7.40;99.90;;;;;;5041963;28;20045;-73
2023/05/18 04:02:37;;;;;;;0.52;0.52;;;7.40;99.90;;;;;;5040831;28;20047;-73
2023/05/18 04:05:02;;;;;;;0.50;0.50;;;7.40;99.90;;;;;;5045590;28;20051;-74
2023/05/18 04:07:28;;;;;;;0.50;0.50;;;7.40;99.90;;;;;;5042014;28;20429;-73
2023/05/18 04:09:55;;;;;;;0.45;0.45;;;7.50;99.90;;;;;;5033623;28;20041;-74
2023/05/18 04:12:21;;;;;;;0.40;0.40;;;7.50;99.90;;;;;;5042394;28;20099;-74
2023/05/18 04:14:49;;;;;;;0.60;0.60;;;7.50;99.90;;;;;;5040941;28;20124;-75
2023/05/18 04:17:17;;;;;;;0.47;0.47;;;7.60;99.90;;;;;;5039652;28;20044;-74
2023/05/18 04:19:42;;;;;;;0.40;0.40;;;7.70;99.90;;;;;;5041627;28;20048;-74
2023/05/18 04:22:08;;;;;;;0.47;0.47;;;7.70;99.90;;;;;;5042146;28;20037;-75
2023/05/18 04:24:36;;;;;;;0.40;0.40;;;7.70;99.90;;;;;;5044710;28;20159;-74
2023/05/18 04:27:03;;;;;;;0.40;0.40;;;7.70;99.90;;;;;;5045909;28;20048;-74
2023/05/18 04:29:29;;;;;;;0.40;0.40;;;7.80;99.90;;;;;;5042376;28;20056;-74
2023/05/18 04:31:59;;;;;;;0.43;0.43;;;7.80;99.90;;;;;;5037112;28;20090;-74
2023/05/18 04:34:26;;;;;;;0.40;0.40;;;7.80;99.90;;;;;;5047339;28;20053;-74
2023/05/18 04:36:58;;;;;;;0.43;0.43;;;7.90;99.90;;;;;;5039915;28;20063;-75
2023/05/18 04:39:24;;;;;;;0.30;0.30;;;7.90;99.90;;;;;;5041616;28;20091;-74
2023/05/18 04:41:57;;;;;;;0.32;0.32;;;7.90;99.90;;;;;;5037934;28;20135;-74
2023/05/18 04:44:33;;;;;;;0.40;0.40;;;8.00;99.90;;;;;;5042732;28;20045;-74
2023/05/18 04:46:59;;;;;;;0.40;0.35;;;8.00;99.90;;;;;;5041788;28;20063;-74
2023/05/18 04:49:25;;;;;;;0.30;0.30;;;8.00;99.90;;;;;;5042799;28;20045;-74
2023/05/18 04:51:54;;;;;;;0.38;0.38;;;8.00;99.90;;;;;;5036166;28;20053;-74
2023/05/18 04:54:22;;;;;;;0.40;0.40;;;8.00;99.90;;;;;;5042901;28;20040;-74
2023/05/18 04:56:48;;;;;;;0.30;0.30;;;8.00;99.90;;;;;;5025720;28;20136;-74
2023/05/18 04:59:14;;;;;;;0.32;0.32;;;8.10;99.90;;;;;;5040449;28;20037;-74
2023/05/18 05:01:40;;;;;;;0.50;0.50;;;8.10;99.90;;;;;;5045813;28;20053;-74
2023/05/18 05:04:06;;;;;;;0.20;0.20;;;8.20;99.90;;;;;;5049792;28;20403;-74
2023/05/18 05:06:32;;;;;;;0.35;0.35;;;8.20;99.90;;;;;;5039469;28;20056;-74
2023/05/18 05:08:58;;;;;;;0.30;0.30;;;8.20;99.90;;;;;;5040413;28;20410;-75
2023/05/18 05:11:23;;;;;;;0.32;0.32;;;8.30;99.90;;;;;;5039274;28;20061;-74
2023/05/18 05:13:49;;;;;;;0.30;0.30;;;8.30;99.90;;;;;;5038968;28;20040;-75
2023/05/18 05:16:15;;;;;;;1.15;0.98;;;8.40;99.90;;;;;;5038610;28;20132;-74
2023/05/18 05:18:41;;;;;;;0.30;0.30;;;8.40;99.90;;;;;;5037156;28;20049;-74
2023/05/18 05:21:08;;;;;;;0.88;0.88;;;8.30;99.90;;;;;;5039055;28;20558;-75
2023/05/18 05:23:33;;;;;;;0.80;0.80;;;8.40;99.90;;;;;;5046862;28;20397;-74
2023/05/18 05:25:59;;;;;;;0.75;0.75;;;8.40;99.90;;;;;;5048486;28;20045;-75
2023/05/18 05:28:25;;;;;;;1.63;1.27;;;8.40;99.90;;;;;;5042941;28;20049;-74
2023/05/18 05:30:50;;;;;;;0.85;0.85;;;8.40;99.90;;;;;;5043521;28;20049;-75
2023/05/18 05:33:17;;;;;;;0.88;0.88;;;8.50;99.90;;;;;;5041344;28;20092;-74
2023/05/18 05:35:43;;;;;;;1.13;1.13;;;8.50;99.90;;;;;;5042421;28;20045;-74
2023/05/18 05:38:09;;;;;;;1.08;0.98;;;8.50;99.90;;;;;;5041197;28;20044;-74
2023/05/18 05:40:34;;;;;;;0.68;0.68;;;8.50;99.90;;;;;;5041236;28;20053;-74
2023/05/18 05:43:00;;;;;;;1.17;0.93;;;8.50;99.90;;;;;;5039422;28;20045;-75
2023/05/18 05:45:28;;;;;;;0.68;0.68;;;8.60;99.90;;;;;;5041540;28;20040;-74
2023/05/18 05:47:54;;;;;;;2.47;0.70;;;8.60;99.90;;;;;;5047854;28;20083;-74
2023/05/18 05:50:20;;;;;;;1.13;1.13;;;8.60;99.90;;;;;;5048162;28;20048;-74
2023/05/18 05:52:46;;;;;;;0.60;0.60;;;8.60;99.90;;;;;;5052188;28;20060;-74
2023/05/18 05:55:11;;;;;;;0.60;0.60;;;8.70;99.90;;;;;;5042921;28;20045;-74
2023/05/18 05:57:41;;;;;;;1.55;1.35;;;8.70;99.90;;;;;;5042327;28;20102;-74
2023/05/18 06:00:11;;;;;;;2.55;1.50;;;8.70;99.70;;;;;;5040093;28;20048;-75
2023/05/18 06:02:38;;;;;;;1.02;0.93;;;8.70;99.90;;;;;;5041604;28;20498;-74
2023/05/18 06:05:07;;;;;;;3.22;2.50;;;8.70;99.90;;;;;;5042678;28;20083;-74
2023/05/18 06:07:33;;;;;;;2.50;2.28;;;8.70;99.90;;;;;;5040174;28;20536;-74
2023/05/18 06:09:59;;;;;;;8.57;1.00;;;8.70;98.70;;;;;;5041388;28;20510;-75
2023/05/18 06:12:24;;;;;;;2.08;1.20;;;8.70;98.60;;;;;;5041375;28;20045;-75
2023/05/18 06:14:56;;;;;;;2.65;1.17;;;8.70;98.90;;;;;;5050817;28;20087;-74
2023/05/18 06:17:25;;;;;;;3.70;1.25;;;8.80;99.10;;;;;;5048373;28;20094;-75
2023/05/18 06:19:51;;;;;;;1.08;1.05;;;8.80;99.00;;;;;;5043951;28;20056;-75
2023/05/18 06:22:17;;;;;;;1.15;1.13;;;8.90;98.70;;;;;;5039854;28;20134;-75
2023/05/18 06:24:42;;;;;;;6.88;1.27;;;9.00;97.30;;;;;;5039504;28;20094;-75
2023/05/18 06:27:08;;;;;;;0.82;0.82;;;9.00;97.60;;;;;;5041118;28;20053;-74
2023/05/18 06:29:34;;;;;;;1.33;1.27;;;9.10;97.20;;;;;;5043222;28;20045;-75
2023/05/18 06:32:05;;;;;;;1.58;1.48;;;9.10;96.00;;;;;;5040819;28;20072;-74
2023/05/18 06:34:31;;;;;;;1.00;0.90;;;9.20;97.20;;;;;;5042928;28;20401;-75
2023/05/18 06:36:57;;;;;;;2.08;1.42;;;9.20;97.20;;;;;;5042303;28;20041;-74
2023/05/18 06:39:23;;;;;;;0.40;0.40;;;9.30;97.00;;;;;;5041615;28;20050;-75
2023/05/18 06:41:50;;;;;;;1.00;1.00;;;9.30;96.10;;;;;;5039838;28;20052;-74
2023/05/18 06:44:16;;;;;;;0.80;0.80;;;9.30;96.20;;;;;;5038638;28;20060;-74
2023/05/18 06:46:42;;;;;;;1.17;1.00;;;9.30;95.90;;;;;;5040545;28;20045;-74
2023/05/18 06:49:07;;;;;;;0.55;0.55;;;9.30;95.50;;;;;;5040538;28;20068;-75
2023/05/18 06:51:33;;;;;;;1.13;0.82;;;9.20;95.90;;;;;;5047976;28;20398;-74
2023/05/18 06:53:59;;;;;;;0.50;0.50;;;9.20;94.80;;;;;;5043717;28;20049;-74
2023/05/18 06:56:25;;;;;;;2.28;1.52;;;9.20;95.90;;;;;;5043735;28;20116;-74
2023/05/18 06:58:51;;;;;;;0.70;0.70;;;9.10;94.90;;;;;;5044471;28;20120;-74
2023/05/18 07:01:18;;;;;;;0.82;0.82;;;9.10;93.80;;;;;;5044313;28;20094;-74
2023/05/18 07:03:43;;;;;;;1.02;1.02;;;9.10;92.60;;;;;;5043165;28;20045;-74
2023/05/18 07:06:09;;;;;;;1.70;1.50;;;9.20;93.50;;;;;;5044449;28;20757;-74
2023/05/18 07:08:38;;;;;;;1.42;1.33;;;9.20;93.30;;;;;;5044459;28;20192;-74
2023/05/18 07:11:04;;;;;;;1.60;1.50;;;9.20;93.00;;;;;;5040962;28;20045;-74
2023/05/18 07:13:30;;;;;;;0.52;0.52;;;9.20;93.90;;;;;;5044240;28;20053;-74
2023/05/18 07:15:58;;;;;;;4.38;1.13;;;9.30;93.20;;;;;;5043602;28;20060;-75
2023/05/18 07:18:23;;;;;;;1.45;1.35;;;9.30;93.40;;;;;;5047160;28;20072;-74
2023/05/18 07:20:49;;;;;;;1.23;1.13;;;9.40;93.20;;;;;;5043384;28;20045;-74
2023/05/18 07:23:15;;;;;;;1.92;1.77;;;9.40;92.40;;;;;;5044002;28;21867;-74
2023/05/18 07:25:40;;;;;;;0.85;0.85;;;9.50;93.00;;;;;;5045512;28;20053;-73
2023/05/18 07:28:06;;;;;;;1.60;0.82;;;9.50;92.60;;;;;;5041465;28;20371;-74
2023/05/18 07:30:32;;;;;;;1.08;0.98;;;9.60;92.60;;;;;;5039685;28;20800;-73
2023/05/18 07:32:57;;;;;;;1.60;1.40;;;9.60;92.70;;;;;;5035780;28;20036;-73
2023/05/18 07:35:25;;;;;;;0.60;0.60;;;9.70;92.90;;;;;;5049088;28;20049;-73
2023/05/18 07:37:52;;;;;;;1.27;1.23;;;9.80;92.30;;;;;;5051961;28;20049;-73
2023/05/18 07:40:19;;;;;;;0.40;0.40;;;9.90;93.20;;;;;;5045320;28;20498;-73
2023/05/18 07:42:45;;;;;;;0.90;0.90;;;10.00;93.00;;;;;;5053362;28;20098;-73
2023/05/18 07:45:11;;;;;;;1.10;1.10;;;10.10;91.80;;;;;;5048521;28;20045;-73
2023/05/18 07:47:37;;;;;;;0.63;0.63;;;10.10;92.70;;;;;;5045468;28;20048;-73
2023/05/18 07:50:03;;;;;;;0.70;0.70;;;10.10;91.90;;;;;;5048988;28;20036;-73
2023/05/18 07:52:29;;;;;;;3.10;1.35;;;10.20;91.80;;;;;;5048288;28;20094;-73
2023/05/18 07:54:58;;;;;;;0.57;0.57;;;10.10;90.70;;;;;;5047965;28;20141;-73
2023/05/18 07:57:24;;;;;;;0.50;0.50;;;10.10;91.00;;;;;;5043899;28;20048;-73
2023/05/18 07:59:50;;;;;;;1.75;1.35;;;10.10;91.60;;;;;;5048103;28;20037;-72
2023/05/18 08:02:18;;;;;;;2.17;1.23;;;10.20;90.80;;;;;;5045078;28;20072;-73
2023/05/18 08:04:44;;;;;;;1.13;1.05;;;10.10;91.30;;;;;;5045139;28;21705;-73
2023/05/18 08:07:11;;;;;;;1.40;1.33;;;10.20;92.00;;;;;;5024447;28;20132;-73
2023/05/18 08:09:37;;;;;;;1.33;1.23;;;10.20;91.30;;;;;;5044223;28;20057;-73
2023/05/18 08:12:04;;;;;;;5.65;0.85;;;10.30;90.00;;;;;;5046187;28;20064;-73
2023/05/18 08:14:30;;;;;;;0.75;0.75;;;10.60;89.20;;;;;;5040515;28;20444;-73
2023/05/18 08:16:56;;;;;;;0.50;0.50;;;10.70;89.10;;;;;;5042446;28;20049;-73
2023/05/18 08:19:22;;;;;;;0.77;0.77;;;10.80;89.00;;;;;;5043374;28;20102;-73
2023/05/18 08:21:48;;;;;;;3.38;1.75;;;11.00;88.40;;;;;;5045619;28;20053;-73
2023/05/18 08:24:14;;;;;;;1.25;1.17;;;11.10;87.20;;;;;;5044809;28;20438;-73
2023/05/18 08:26:39;;;;;;;10.27;1.65;;;11.20;87.90;;;;;;5045982;28;20045;-73
2023/05/18 08:29:08;;;;;;;0.75;0.75;;;11.40;87.20;;;;;;5042381;28;20041;-73
2023/05/18 08:31:40;;;;;;;1.85;1.75;;;11.60;87.60;;;;;;5041850;28;20132;-73
2023/05/18 08:34:07;;;;;;;1.55;1.45;;;11.80;85.80;;;;;;5045953;28;20437;-73
2023/05/18 08:36:35;;;;;;;0.63;0.63;;;11.90;82.30;;;;;;5045159;28;20045;-73
2023/05/18 08:39:01;;;;;;;2.53;1.60;;;11.90;82.30;;;;;;5039085;28;20128;-72
2023/05/18 08:41:52;;;;;;;1.63;1.52;;;12.00;81.00;;;;;;5039644;28;20051;-73
2023/05/18 08:44:24;;;;;;;1.08;0.98;;;12.10;80.90;;;;;;5040522;28;20049;-72
2023/05/18 08:46:51;;;;;;;1.05;1.02;;;12.10;81.40;;;;;;5045036;28;20033;-72
2023/05/18 08:49:20;;;;;;;2.75;1.38;;;12.30;78.20;;;;;;5047055;28;20044;-72
2023/05/18 08:51:52;;;;;;;1.17;1.08;;;12.50;79.30;;;;;;5046779;28;20049;-73
2023/05/18 08:54:22;;;;;;;0.60;0.60;;;12.40;79.90;;;;;;5047125;28;20041;-73
2023/05/18 08:56:48;;;;;;;0.70;0.70;;;12.50;78.10;;;;;;5044238;28;20116;-72
2023/05/18 08:59:21;;;;;;;1.00;1.00;;;12.60;76.80;;;;;;5043135;28;20060;-72
2023/05/18 09:01:46;;;;;;;6.32;2.25;;;12.60;79.40;;;;;;5045895;28;20060;-73
2023/05/18 09:04:13;;;;;;;1.45;1.35;;;12.60;76.30;;;;;;5042837;28;20041;-73
2023/05/18 09:06:39;;;;;;;2.15;1.35;;;12.60;76.50;;;;;;5045501;28;20083;-73
2023/05/18 09:09:06;;;;;;;0.75;0.75;;;12.60;75.40;;;;;;5045999;28;20059;-72
2023/05/18 09:11:33;;;;;;;5.00;2.53;;;12.70;78.60;;;;;;5044941;28;20052;-74
2023/05/18 09:13:59;;;;;;;1.10;1.00;;;12.80;77.50;;;;;;5047031;28;20056;-74
2023/05/18 09:16:26;;;;;;;0.73;0.73;;;12.90;75.60;;;;;;5037857;28;20582;-73
2023/05/18 09:18:52;;;;;;;0.50;0.50;;;12.70;76.30;;;;;;5049719;28;20066;-74
2023/05/18 09:21:18;;;;;;;1.17;1.17;;;12.60;76.90;;;;;;5042035;28;20482;-73
2023/05/18 09:23:44;;;;;;;0.60;0.60;;;12.50;77.20;;;;;;5041881;28;20057;-74
2023/05/18 09:26:11;;;;;;;1.25;1.15;;;12.60;79.00;;;;;;5041231;28;20049;-74
2023/05/18 09:28:42;;;;;;;0.30;0.30;;;12.70;79.00;;;;;;5041535;28;20060;-74
2023/05/18 09:31:15;;;;;;;1.45;1.13;;;13.00;77.10;;;;;;5043265;28;20041;-74
2023/05/18 09:33:43;;;;;;;1.30;1.25;;;13.20;75.00;;;;;;5050456;28;20111;-73
2023/05/18 09:36:09;;;;;;;0.60;0.60;;;13.30;75.10;;;;;;5054240;28;20029;-74
2023/05/18 09:38:44;;;;;;;0.80;0.80;;;13.20;74.40;;;;;;5048556;28;20037;-74
2023/05/18 09:41:16;;;;;;;1.45;1.35;;;13.10;75.80;;;;;;5046083;28;20055;-74
2023/05/18 09:43:47;;;;;;;0.75;0.75;;;13.10;74.30;;;;;;5047000;28;20056;-74
2023/05/18 09:46:13;;;;;;;1.27;1.15;;;13.10;73.90;;;;;;5043219;28;20060;-74
2023/05/18 09:48:47;;;;;;;0.98;0.98;;;13.20;75.20;;;;;;5048097;28;20406;-74
2023/05/18 09:51:17;;;;;;;0.77;0.77;;;13.30;74.00;;;;;;5051940;28;20052;-74
2023/05/18 09:53:54;;;;;;;0.98;0.98;;;13.40;73.80;;;;;;5051291;28;20044;-74
2023/05/18 09:56:22;;;;;;;1.13;0.80;;;13.50;74.50;;;;;;5049351;28;20124;-74
2023/05/18 09:58:48;;;;;;;0.77;0.77;;;13.50;72.00;;;;;;5050940;28;20045;-75
2023/05/18 10:01:14;;;;;;;1.58;1.48;;;13.50;73.60;;;;;;5046522;28;20867;-74
2023/05/18 10:03:40;;;;;;;1.45;1.35;;;13.70;73.80;;;;;;5050726;28;20079;-74
2023/05/18 10:06:08;;;;;;;5.28;2.05;;;13.70;73.70;;;;;;5048927;28;20056;-74
2023/05/18 10:08:35;;;;;;;1.40;1.38;;;13.70;70.20;;;;;;5053778;28;20044;-74
2023/05/18 10:11:02;;;;;;;4.47;1.65;;;13.70;71.70;;;;;;5046168;28;20490;-74
2023/05/18 10:13:30;;;;;;;0.70;0.70;;;13.80;72.50;;;;;;5047833;28;20498;-74
2023/05/18 10:15:57;;;;;;;1.23;1.08;;;13.80;71.50;;;;;;5045190;28;20059;-74
2023/05/18 10:18:34;;;;;;;2.25;1.42;;;13.90;71.00;;;;;;5039982;28;20041;-73
2023/05/18 10:21:02;;;;;;;1.67;1.58;;;13.90;71.20;;;;;;5055899;28;20083;-73
2023/05/18 10:23:31;;;;;;;1.08;1.08;;;14.10;72.60;;;;;;5060822;28;20045;-73
2023/05/18 10:25:57;;;;;;;0.75;0.75;;;14.30;74.00;;;;;;5048273;28;20179;-73
2023/05/18 10:28:31;;;;;;;0.82;0.82;;;14.60;71.00;;;;;;5051554;28;20068;-73
2023/05/18 10:30:58;;;;;;;1.33;1.23;;;14.70;71.10;;;;;;5054756;28;20045;-73
2023/05/18 10:33:26;;;;;;;0.80;0.80;;;14.60;69.10;;;;;;5050294;28;20033;-73
2023/05/18 10:35:53;;;;;;;3.55;1.95;;;14.40;68.30;;;;;;5056897;28;20055;-73
2023/05/18 10:38:29;;;;;;;1.15;1.05;;;14.20;69.10;;;;;;5048565;28;20151;-73
2023/05/18 10:40:59;;;;;;;2.17;2.05;;;14.20;71.10;;;;;;5050103;28;20086;-73
2023/05/18 10:43:26;;;;;;;1.00;1.00;;;14.30;69.20;;;;;;5056958;28;20048;-73
2023/05/18 10:45:57;;;;;;;2.05;1.73;;;14.40;70.80;;;;;;5047809;28;20041;-72
2023/05/18 10:48:24;;;;;;;1.88;1.77;;;14.60;69.50;;;;;;5051996;28;20838;-73
2023/05/18 10:50:51;;;;;;;5.20;1.20;;;14.50;69.50;;;;;;5049624;28;20049;-73
2023/05/18 10:53:19;;;;;;;5.43;2.23;;;14.50;70.40;;;;;;5058092;28;20056;-73
2023/05/18 10:55:46;;;;;;;6.65;2.28;;;14.40;69.70;;;;;;5052402;28;20804;-74
2023/05/18 10:58:15;;;;;;;1.85;1.65;;;14.40;68.50;;;;;;5051055;28;20433;-73
2023/05/18 11:00:45;;;;;;;1.67;1.60;;;14.30;69.00;;;;;;5049160;28;20084;-73
2023/05/18 11:03:12;;;;;;;0.70;0.70;;;14.30;69.30;;;;;;5051027;28;20062;-73
2023/05/18 11:05:40;;;;;;;8.48;1.80;;;14.30;69.10;;;;;;5049385;28;20045;-72
2023/05/18 11:08:06;;;;;;;1.25;1.25;;;14.40;69.70;;;;;;5050800;28;20099;-73
2023/05/18 11:10:33;;;;;;;0.80;0.80;;;14.40;68.90;;;;;;5044446;28;20080;-73
2023/05/18 11:13:02;;;;;;;4.67;1.80;;;14.50;69.70;;;;;;5054768;28;20103;-73
2023/05/18 11:15:49;;;;;;;2.50;1.15;;;14.80;69.60;;;;;;5044669;28;20338;-74
2023/05/18 11:18:16;;;;;;;0.63;0.63;;;14.90;69.20;;;;;;5043420;28;20116;-73
2023/05/18 11:20:45;;;;;;;2.45;0.73;;;15.20;68.10;;;;;;5051291;28;20060;-73
2023/05/18 11:23:13;;;;;;;1.73;1.63;;;15.20;67.10;;;;;;5047608;28;20052;-73
2023/05/18 11:25:42;;;;;;;4.50;1.15;;;15.10;68.20;;;;;;5048693;28;20088;-73
2023/05/18 11:28:10;;;;;;;1.13;1.08;;;15.00;66.80;;;;;;5055037;28;20127;-73
2023/05/18 11:30:36;;;;;;;0.70;0.70;;;15.20;67.70;;;;;;5050545;28;20048;-73
2023/05/18 11:33:16;;;;;;;2.40;2.20;;;15.40;67.80;;;;;;5052194;28;20045;-73
2023/05/18 11:36:02;;;;;;;1.23;1.13;;;15.40;67.30;;;;;;5049992;28;20096;-73
2023/05/18 11:39:05;;;;;;;0.93;0.93;;;15.40;66.20;;;;;;5050464;28;20410;-73
2023/05/18 11:41:40;;;;;;;1.75;1.65;;;15.40;68.20;;;;;;5051912;28;20049;-74
2023/05/18 11:44:15;;;;;;;0.75;0.55;;;15.50;67.10;;;;;;5038175;28;20064;-73
2023/05/18 11:47:01;;;;;;;0.80;0.80;;;15.60;68.10;;;;;;5055315;28;20390;-73
2023/05/18 11:49:29;;;;;;;8.55;1.98;;;15.60;66.70;;;;;;5045647;28;20094;-73
2023/05/18 11:52:00;;;;;;;1.48;1.38;;;15.50;66.80;;;;;;5056470;28;20053;-73
2023/05/18 11:54:27;;;;;;;2.30;1.95;;;15.40;67.90;;;;;;5044158;28;20143;-73
2023/05/18 11:56:53;;;;;;;3.60;1.35;;;15.50;68.60;;;;;;5048239;28;20049;-73
2023/05/18 11:59:37;;;;;;;1.02;1.00;;;15.60;66.80;;;;;;5042417;28;20409;-72
2023/05/18 12:02:03;;;;;;;0.50;0.50;;;15.80;66.80;;;;;;5046373;28;20041;-73
2023/05/18 12:04:30;;;;;;;0.80;0.80;;;15.90;69.10;;;;;;5042289;28;20045;-74
2023/05/18 12:06:56;;;;;;;1.02;1.02;;;16.00;66.30;;;;;;5050473;28;20052;-75
2023/05/18 12:09:23;;;;;;;2.60;1.05;;;15.70;66.70;;;;;;5048981;28;20052;-73
2023/05/18 12:11:49;;;;;;;0.50;0.50;;;15.60;66.30;;;;;;5047350;28;20129;-74
2023/05/18 12:14:19;;;;;;;2.20;1.27;;;15.70;65.60;;;;;;5049826;28;20100;-73
2023/05/18 12:16:47;;;;;;;0.80;0.80;;;15.80;66.80;;;;;;5043253;28;20040;-73
2023/05/18 12:19:13;;;;;;;0.93;0.57;;;16.00;67.10;;;;;;5038530;28;20922;-73
2023/05/18 12:21:38;;;;;;;2.00;1.88;;;16.20;66.20;;;;;;5047870;28;20127;-73
2023/05/18 12:24:05;;;;;;;0.70;0.70;;;16.20;64.60;;;;;;5045864;28;20045;-74
2023/05/18 12:26:31;;;;;;;0.50;0.50;;;16.20;65.30;;;;;;5055315;28;20105;-74
2023/05/18 12:29:00;;;;;;;0.80;0.80;;;16.40;64.80;;;;;;5049416;28;20084;-73
2023/05/18 12:31:27;;;;;;;6.90;1.30;;;16.40;64.10;;;;;;5052956;28;20048;-74
2023/05/18 12:33:53;;;;;;;3.00;1.77;;;16.30;64.40;;;;;;5044689;28;20532;-73
2023/05/18 12:36:19;;;;;;;1.27;1.13;;;16.30;64.10;;;;;;5044564;28;20055;-74
2023/05/18 12:38:50;;;;;;;1.27;1.02;;;16.20;64.00;;;;;;5042719;28;20045;-74
2023/05/18 12:41:26;;;;;;;1.70;1.60;;;16.20;65.00;;;;;;5039059;28;20045;-73
2023/05/18 12:43:53;;;;;;;0.40;0.40;;;16.40;64.40;;;;;;5044988;28;20111;-74
2023/05/18 12:46:22;;;;;;;3.72;1.45;;;16.40;62.80;;;;;;5045217;28;20074;-73
2023/05/18 12:48:57;;;;;;;4.68;2.15;;;16.20;63.20;;;;;;5047137;28;20076;-73
2023/05/18 12:51:23;;;;;;;1.25;1.15;;;16.10;63.60;;;;;;5046408;28;20064;-73
2023/05/18 12:53:49;;;;;;;0.77;0.70;;;16.20;65.40;;;;;;5045013;28;20060;-73
2023/05/18 12:56:17;;;;;;;0.82;0.82;;;16.20;64.50;;;;;;5043960;28;20076;-74
2023/05/18 12:59:05;;;;;;;1.42;0.80;;;16.30;65.60;;;;;;5045246;28;20417;-74